sensor_id;sensor_type;location;lat;lon;timestamp;temperature;humidity
10662;DHT22;5379;51.034;7.006;2024-01-11T00:09:29;-2.90;99.90
10662;DHT22;5379;51.034;7.006;2024-01-11T00:11:56;-2.90;99.90
10662;DHT22;5379;51.034;7.006;2024-01-11T00:14:22;-2.80;99.90
10662;DHT22;5379;51.034;7.006;2024-01-11T00:19:18;-2.60;99.90
10662;DHT22;5379;51.034;7.006;2024-01-11T00:29:07;-2.90;99.90
10662;DHT22;5379;51.034;7.006;2024-01-11T00:34:02;-3.20;99.90
10662;DHT22;5379;51.034;7.006;2024-01-11T00:43:52;-3.10;99.90
10662;DHT22;5379;51.034;7.006;2024-01-11T00:53:42;-3.20;99.90
10662;DHT22;5379;51.034;7.006;2024-01-11T00:56:15;-3.20;99.90
10662;DHT22;5379;51.034;7.006;2024-01-11T00:58:42;-3.30;99.90
10662;DHT22;5379;51.034;7.006;2024-01-11T05:31:00;-3.50;99.90
10662;DHT22;5379;51.034;7.006;2024-01-11T05:33:27;-3.40;99.90
10662;DHT22;5379;51.034;7.006;2024-01-11T05:35:53;-3.60;99.90
10662;DHT22;5379;51.034;7.006;2024-01-11T05:38:20;-3.50;99.90
10662;DHT22;5379;51.034;7.006;2024-01-11T05:40:47;-3.80;99.90
10662;DHT22;5379;51.034;7.006;2024-01-11T05:45:41;-3.20;99.90
10662;DHT22;5379;51.034;7.006;2024-01-11T05:48:10;-4.00;99.90
10662;DHT22;5379;51.034;7.006;2024-01-11T06:00:25;-4.00;99.90
10662;DHT22;5379;51.034;7.006;2024-01-11T06:32:22;-4.30;99.90
10662;DHT22;5379;51.034;7.006;2024-01-11T06:34:49;-4.30;99.90
10662;DHT22;5379;51.034;7.006;2024-01-11T06:42:11;-4.20;99.90
10662;DHT22;5379;51.034;7.006;2024-01-11T06:49:33;-4.20;99.90
10662;DHT22;5379;51.034;7.006;2024-01-11T07:26:27;-4.10;99.90
10662;DHT22;5379;51.034;7.006;2024-01-11T07:43:39;-4.40;99.90
10662;DHT22;5379;51.034;7.006;2024-01-11T07:51:03;-4.20;99.90
10662;DHT22;5379;51.034;7.006;2024-01-11T08:00:53;-4.30;99.90
10662;DHT22;5379;51.034;7.006;2024-01-11T08:05:48;-4.40;99.90
10662;DHT22;5379;51.034;7.006;2024-01-11T08:20:33;-3.30;99.90
10662;DHT22;5379;51.034;7.006;2024-01-11T08:27:56;-3.20;99.90
10662;DHT22;5379;51.034;7.006;2024-01-11T08:57:31;-3.70;99.90
10662;DHT22;5379;51.034;7.006;2024-01-11T09:12:14;-2.90;99.90
10662;DHT22;5379;51.034;7.006;2024-01-11T09:14:42;-3.10;99.90
10662;DHT22;5379;51.034;7.006;2024-01-11T09:36:57;-2.50;99.90
10662;DHT22;5379;51.034;7.006;2024-01-11T09:41:58;-2.50;99.90
10662;DHT22;5379;51.034;7.006;2024-01-11T09:46:53;-2.30;99.90
10662;DHT22;5379;51.034;7.006;2024-01-11T09:49:23;-2.30;99.90
10662;DHT22;5379;51.034;7.006;2024-01-11T09:51:51;-2.10;99.90
10662;DHT22;5379;51.034;7.006;2024-01-11T09:54:21;-2.10;99.90
10662;DHT22;5379;51.034;7.006;2024-01-11T09:56:50;-2.20;99.90
10662;DHT22;5379;51.034;7.006;2024-01-11T09:59:18;-2.10;99.90
10662;DHT22;5379;51.034;7.006;2024-01-11T10:04:16;-1.90;99.90
10662;DHT22;5379;51.034;7.006;2024-01-11T10:06:44;-2.00;99.90
10662;DHT22;5379;51.034;7.006;2024-01-11T10:21:29;-1.70;99.90
10662;DHT22;5379;51.034;7.006;2024-01-11T10:23:57;-1.70;99.90
10662;DHT22;5379;51.034;7.006;2024-01-11T10:26:28;-1.90;99.90
10662;DHT22;5379;51.034;7.006;2024-01-11T10:28:59;-1.80;99.90
10662;DHT22;5379;51.034;7.006;2024-01-11T10:31:28;-1.70;99.90
10662;DHT22;5379;51.034;7.006;2024-01-11T10:33:55;-1.70;99.90
10662;DHT22;5379;51.034;7.006;2024-01-11T10:38:50;-1.60;99.90
10662;DHT22;5379;51.034;7.006;2024-01-11T10:41:20;-1.60;99.90
10662;DHT22;5379;51.034;7.006;2024-01-11T10:43:48;-1.50;99.90
10662;DHT22;5379;51.034;7.006;2024-01-11T10:46:18;-1.50;99.90
10662;DHT22;5379;51.034;7.006;2024-01-11T10:48:48;-1.40;99.90
10662;DHT22;5379;51.034;7.006;2024-01-11T10:51:21;-1.30;99.90
10662;DHT22;5379;51.034;7.006;2024-01-11T10:53:50;-1.10;99.90
10662;DHT22;5379;51.034;7.006;2024-01-11T10:56:20;-0.90;99.90
10662;DHT22;5379;51.034;7.006;2024-01-11T10:58:48;-0.70;99.90
10662;DHT22;5379;51.034;7.006;2024-01-11T11:01:16;-0.80;99.90
10662;DHT22;5379;51.034;7.006;2024-01-11T11:08:39;-0.80;99.90
10662;DHT22;5379;51.034;7.006;2024-01-11T11:13:35;-0.80;99.90
10662;DHT22;5379;51.034;7.006;2024-01-11T11:16:02;-0.80;99.90
10662;DHT22;5379;51.034;7.006;2024-01-11T11:18:30;-0.60;99.90
10662;DHT22;5379;51.034;7.006;2024-01-11T11:25:54;-0.30;99.90
10662;DHT22;5379;51.034;7.006;2024-01-11T11:30:52;-0.30;99.90
10662;DHT22;5379;51.034;7.006;2024-01-11T11:33:23;-0.20;99.90
10662;DHT22;5379;51.034;7.006;2024-01-11T11:38:21;-0.20;99.90
10662;DHT22;5379;51.034;7.006;2024-01-11T11:40:50;-0.20;99.90
10662;DHT22;5379;51.034;7.006;2024-01-11T11:45:46;-0.20;99.90
10662;DHT22;5379;51.034;7.006;2024-01-11T11:48:50;-0.20;99.90
10662;DHT22;5379;51.034;7.006;2024-01-11T11:51:18;0.00;99.90
10662;DHT22;5379;51.034;7.006;2024-01-11T11:53:46;0.10;99.90
10662;DHT22;5379;51.034;7.006;2024-01-11T11:56:14;0.10;99.90
10662;DHT22;5379;51.034;7.006;2024-01-11T11:58:43;0.20;99.90
10662;DHT22;5379;51.034;7.006;2024-01-11T12:01:11;0.30;99.90
10662;DHT22;5379;51.034;7.006;2024-01-11T12:03:40;0.30;99.90
10662;DHT22;5379;51.034;7.006;2024-01-11T12:06:09;0.30;99.90
10662;DHT22;5379;51.034;7.006;2024-01-11T12:08:37;0.30;99.90
10662;DHT22;5379;51.034;7.006;2024-01-11T12:13:33;0.60;99.90
10662;DHT22;5379;51.034;7.006;2024-01-11T12:16:01;0.60;99.90
10662;DHT22;5379;51.034;7.006;2024-01-11T12:20:56;0.60;99.90
10662;DHT22;5379;51.034;7.006;2024-01-11T12:23:24;0.60;99.90
10662;DHT22;5379;51.034;7.006;2024-01-11T12:25:51;0.70;99.90
10662;DHT22;5379;51.034;7.006;2024-01-11T12:28:18;0.70;99.90
10662;DHT22;5379;51.034;7.006;2024-01-11T12:30:45;0.80;99.90
10662;DHT22;5379;51.034;7.006;2024-01-11T12:33:13;0.90;99.90
10662;DHT22;5379;51.034;7.006;2024-01-11T12:40:36;1.00;99.90
10662;DHT22;5379;51.034;7.006;2024-01-11T12:43:04;1.00;99.90
10662;DHT22;5379;51.034;7.006;2024-01-11T12:45:31;0.90;99.90
10662;DHT22;5379;51.034;7.006;2024-01-11T12:47:59;1.00;99.90
10662;DHT22;5379;51.034;7.006;2024-01-11T12:53:07;1.10;99.90
10662;DHT22;5379;51.034;7.006;2024-01-11T12:55:36;1.10;99.90
10662;DHT22;5379;51.034;7.006;2024-01-11T12:58:07;1.20;99.90
10662;DHT22;5379;51.034;7.006;2024-01-11T13:00:35;1.30;99.90
10662;DHT22;5379;51.034;7.006;2024-01-11T13:03:02;1.30;99.90
10662;DHT22;5379;51.034;7.006;2024-01-11T13:05:30;1.30;99.90
10662;DHT22;5379;51.034;7.006;2024-01-11T13:08:00;1.30;99.90
10662;DHT22;5379;51.034;7.006;2024-01-11T13:10:28;1.40;99.90
10662;DHT22;5379;51.034;7.006;2024-01-11T13:12:58;1.50;99.90
10662;DHT22;5379;51.034;7.006;2024-01-11T13:15:26;1.50;99.90
10662;DHT22;5379;51.034;7.006;2024-01-11T13:17:54;1.50;99.90
10662;DHT22;5379;51.034;7.006;2024-01-11T13:20:21;1.60;99.90
10662;DHT22;5379;51.034;7.006;2024-01-11T13:22:48;1.60;99.90
10662;DHT22;5379;51.034;7.006;2024-01-11T13:25:14;1.70;99.90
10662;DHT22;5379;51.034;7.006;2024-01-11T13:27:41;1.70;99.90
10662;DHT22;5379;51.034;7.006;2024-01-11T13:30:10;1.70;99.90
10662;DHT22;5379;51.034;7.006;2024-01-11T13:32:36;1.70;99.90
10662;DHT22;5379;51.034;7.006;2024-01-11T13:35:04;1.70;99.90
10662;DHT22;5379;51.034;7.006;2024-01-11T13:37:31;1.80;99.90
10662;DHT22;5379;51.034;7.006;2024-01-11T13:39:58;1.80;99.90
10662;DHT22;5379;51.034;7.006;2024-01-11T13:42:25;1.90;99.90
10662;DHT22;5379;51.034;7.006;2024-01-11T13:44:52;2.00;99.90
10662;DHT22;5379;51.034;7.006;2024-01-11T13:47:20;2.00;99.90
10662;DHT22;5379;51.034;7.006;2024-01-11T13:49:46;2.00;99.90
10662;DHT22;5379;51.034;7.006;2024-01-11T13:52:13;2.10;99.90
10662;DHT22;5379;51.034;7.006;2024-01-11T13:57:07;2.00;99.90
10662;DHT22;5379;51.034;7.006;2024-01-11T13:59:34;2.00;99.90
10662;DHT22;5379;51.034;7.006;2024-01-11T14:04:30;2.00;99.90
10662;DHT22;5379;51.034;7.006;2024-01-11T14:06:58;2.00;99.90
10662;DHT22;5379;51.034;7.006;2024-01-11T14:09:25;2.10;99.90
10662;DHT22;5379;51.034;7.006;2024-01-11T14:11:51;2.20;99.90
10662;DHT22;5379;51.034;7.006;2024-01-11T14:14:18;2.20;99.90
10662;DHT22;5379;51.034;7.006;2024-01-11T14:16:46;2.20;99.90
10662;DHT22;5379;51.034;7.006;2024-01-11T14:19:13;2.20;99.90
10662;DHT22;5379;51.034;7.006;2024-01-11T14:21:41;2.20;99.90
10662;DHT22;5379;51.034;7.006;2024-01-11T14:24:07;2.30;99.90
10662;DHT22;5379;51.034;7.006;2024-01-11T14:26:34;2.20;99.90
10662;DHT22;5379;51.034;7.006;2024-01-11T14:31:28;2.40;99.90
10662;DHT22;5379;51.034;7.006;2024-01-11T14:33:55;2.60;99.90
10662;DHT22;5379;51.034;7.006;2024-01-11T14:36:22;2.50;99.90
10662;DHT22;5379;51.034;7.006;2024-01-11T14:38:50;2.50;99.90
10662;DHT22;5379;51.034;7.006;2024-01-11T14:41:17;2.50;99.90
10662;DHT22;5379;51.034;7.006;2024-01-11T14:43:44;2.50;99.90
10662;DHT22;5379;51.034;7.006;2024-01-11T14:46:11;2.50;99.90
10662;DHT22;5379;51.034;7.006;2024-01-11T14:51:06;2.50;99.90
10662;DHT22;5379;51.034;7.006;2024-01-11T14:56:02;2.60;99.30
10662;DHT22;5379;51.034;7.006;2024-01-11T14:58:29;2.60;99.20
10662;DHT22;5379;51.034;7.006;2024-01-11T15:00:57;2.50;98.90
10662;DHT22;5379;51.034;7.006;2024-01-11T15:03:24;2.50;98.20
10662;DHT22;5379;51.034;7.006;2024-01-11T15:05:52;2.50;98.40
10662;DHT22;5379;51.034;7.006;2024-01-11T15:08:19;2.50;98.00
10662;DHT22;5379;51.034;7.006;2024-01-11T15:10:46;2.50;97.90
10662;DHT22;5379;51.034;7.006;2024-01-11T15:13:15;2.50;97.80
10662;DHT22;5379;51.034;7.006;2024-01-11T15:15:41;2.50;98.10
10662;DHT22;5379;51.034;7.006;2024-01-11T15:18:08;2.40;97.90
10662;DHT22;5379;51.034;7.006;2024-01-11T15:20:36;2.40;98.10
10662;DHT22;5379;51.034;7.006;2024-01-11T15:23:03;2.40;98.10
10662;DHT22;5379;51.034;7.006;2024-01-11T15:25:30;2.30;98.00
10662;DHT22;5379;51.034;7.006;2024-01-11T15:27:57;2.30;97.60
10662;DHT22;5379;51.034;7.006;2024-01-11T15:30:25;2.30;97.60
10662;DHT22;5379;51.034;7.006;2024-01-11T15:35:19;2.20;97.40
10662;DHT22;5379;51.034;7.006;2024-01-11T15:37:46;2.00;97.50
10662;DHT22;5379;51.034;7.006;2024-01-11T15:40:14;2.00;97.60
10662;DHT22;5379;51.034;7.006;2024-01-11T15:42:40;2.00;97.90
10662;DHT22;5379;51.034;7.006;2024-01-11T15:45:08;2.00;97.50
10662;DHT22;5379;51.034;7.006;2024-01-11T15:47:38;2.00;97.40
10662;DHT22;5379;51.034;7.006;2024-01-11T15:50:05;2.00;97.10
10662;DHT22;5379;51.034;7.006;2024-01-11T15:52:36;2.00;96.80
10662;DHT22;5379;51.034;7.006;2024-01-11T15:55:03;1.90;97.10
10662;DHT22;5379;51.034;7.006;2024-01-11T15:57:31;1.90;96.70
10662;DHT22;5379;51.034;7.006;2024-01-11T15:59:58;1.90;96.60
10662;DHT22;5379;51.034;7.006;2024-01-11T16:02:25;1.90;96.50
10662;DHT22;5379;51.034;7.006;2024-01-11T16:04:53;1.80;96.40
10662;DHT22;5379;51.034;7.006;2024-01-11T16:07:20;1.80;96.40
10662;DHT22;5379;51.034;7.006;2024-01-11T16:09:47;1.70;96.30
10662;DHT22;5379;51.034;7.006;2024-01-11T16:12:15;5.70;97.90
10662;DHT22;5379;51.034;7.006;2024-01-11T16:14:43;1.70;96.10
10662;DHT22;5379;51.034;7.006;2024-01-11T16:17:10;1.70;96.00
10662;DHT22;5379;51.034;7.006;2024-01-11T16:19:37;1.70;96.30
10662;DHT22;5379;51.034;7.006;2024-01-11T16:22:06;1.60;96.10
10662;DHT22;5379;51.034;7.006;2024-01-11T16:24:33;2.10;96.00
10662;DHT22;5379;51.034;7.006;2024-01-11T16:26:59;1.50;95.60
10662;DHT22;5379;51.034;7.006;2024-01-11T16:29:26;1.60;95.90
10662;DHT22;5379;51.034;7.006;2024-01-11T16:31:53;1.70;95.70
10662;DHT22;5379;51.034;7.006;2024-01-11T16:34:20;1.60;95.50
10662;DHT22;5379;51.034;7.006;2024-01-11T16:36:46;1.60;95.70
10662;DHT22;5379;51.034;7.006;2024-01-11T16:39:14;1.50;95.70
10662;DHT22;5379;51.034;7.006;2024-01-11T16:41:41;1.50;95.70
10662;DHT22;5379;51.034;7.006;2024-01-11T16:44:09;1.50;95.80
10662;DHT22;5379;51.034;7.006;2024-01-11T16:46:36;1.60;95.80
10662;DHT22;5379;51.034;7.006;2024-01-11T16:49:03;1.50;96.00
10662;DHT22;5379;51.034;7.006;2024-01-11T16:51:30;1.40;96.20
10662;DHT22;5379;51.034;7.006;2024-01-11T16:53:57;1.40;96.30
10662;DHT22;5379;51.034;7.006;2024-01-11T16:56:25;1.40;96.60
10662;DHT22;5379;51.034;7.006;2024-01-11T16:58:52;1.40;96.50
10662;DHT22;5379;51.034;7.006;2024-01-11T17:01:20;1.50;96.60
10662;DHT22;5379;51.034;7.006;2024-01-11T17:03:46;1.40;96.60
10662;DHT22;5379;51.034;7.006;2024-01-11T17:08:44;1.30;96.80
10662;DHT22;5379;51.034;7.006;2024-01-11T17:11:11;1.30;97.00
10662;DHT22;5379;51.034;7.006;2024-01-11T17:13:39;1.10;97.00
10662;DHT22;5379;51.034;7.006;2024-01-11T17:23:27;1.20;96.90
10662;DHT22;5379;51.034;7.006;2024-01-11T17:25:54;1.10;97.10
10662;DHT22;5379;51.034;7.006;2024-01-11T17:28:22;1.10;97.30
10662;DHT22;5379;51.034;7.006;2024-01-11T17:43:08;0.90;97.90
10662;DHT22;5379;51.034;7.006;2024-01-11T17:50:32;0.70;98.20
10662;DHT22;5379;51.034;7.006;2024-01-11T18:05:20;0.70;98.50
10662;DHT22;5379;51.034;7.006;2024-01-11T18:10:14;0.40;99.10
10662;DHT22;5379;51.034;7.006;2024-01-11T18:15:10;0.40;99.40
10662;DHT22;5379;51.034;7.006;2024-01-11T18:20:07;0.30;99.70
10662;DHT22;5379;51.034;7.006;2024-01-11T18:22:36;0.40;99.90
10662;DHT22;5379;51.034;7.006;2024-01-11T18:27:30;0.40;99.90
10662;DHT22;5379;51.034;7.006;2024-01-11T18:32:25;0.40;99.90
10662;DHT22;5379;51.034;7.006;2024-01-11T18:39:49;0.50;99.90
10662;DHT22;5379;51.034;7.006;2024-01-11T18:42:24;0.50;99.90
10662;DHT22;5379;51.034;7.006;2024-01-11T18:59:38;0.90;99.90
10662;DHT22;5379;51.034;7.006;2024-01-11T19:11:54;0.90;99.90
10662;DHT22;5379;51.034;7.006;2024-01-11T19:31:42;0.90;99.90
10662;DHT22;5379;51.034;7.006;2024-01-11T19:51:25;1.00;99.90
10662;DHT22;5379;51.034;7.006;2024-01-11T19:56:21;1.20;99.90
10662;DHT22;5379;51.034;7.006;2024-01-11T19:58:49;1.20;99.90
10662;DHT22;5379;51.034;7.006;2024-01-11T20:16:02;1.30;99.90
10662;DHT22;5379;51.034;7.006;2024-01-11T20:18:29;1.20;99.90
10662;DHT22;5379;51.034;7.006;2024-01-11T20:23:25;1.20;99.90
10662;DHT22;5379;51.034;7.006;2024-01-11T20:40:37;1.30;99.90
10662;DHT22;5379;51.034;7.006;2024-01-11T21:02:52;1.30;99.90
10662;DHT22;5379;51.034;7.006;2024-01-11T21:07:52;1.30;99.90
10662;DHT22;5379;51.034;7.006;2024-01-11T21:32:28;1.30;99.90
10662;DHT22;5379;51.034;7.006;2024-01-11T22:01:58;1.40;99.90
10662;DHT22;5379;51.034;7.006;2024-01-11T22:31:32;1.40;99.90
10662;DHT22;5379;51.034;7.006;2024-01-11T22:41:24;1.50;99.90
10662;DHT22;5379;51.034;7.006;2024-01-11T22:46:21;3.20;99.90
10662;DHT22;5379;51.034;7.006;2024-01-11T22:58:38;1.50;99.90
10662;DHT22;5379;51.034;7.006;2024-01-11T23:01:05;1.50;99.90
10662;DHT22;5379;51.034;7.006;2024-01-11T23:28:06;1.50;99.90
10662;DHT22;5379;51.034;7.006;2024-01-11T23:30:34;1.50;99.90
10662;DHT22;5379;51.034;7.006;2024-01-11T23:33:02;1.50;99.90
10662;DHT22;5379;51.034;7.006;2024-01-11T23:35:29;1.50;99.90
10662;DHT22;5379;51.034;7.006;2024-01-11T23:37:56;1.50;99.90
10662;DHT22;5379;51.034;7.006;2024-01-11T23:40:23;1.50;99.90
10662;DHT22;5379;51.034;7.006;2024-01-11T23:42:50;1.50;99.90
10662;DHT22;5379;51.034;7.006;2024-01-11T23:45:18;1.50;99.90
10662;DHT22;5379;51.034;7.006;2024-01-11T23:47:45;1.50;99.90
10662;DHT22;5379;51.034;7.006;2024-01-11T23:50:14;1.50;99.90
10662;DHT22;5379;51.034;7.006;2024-01-11T23:52:40;1.50;99.90
10662;DHT22;5379;51.034;7.006;2024-01-11T23:55:07;1.50;99.90
10662;DHT22;5379;51.034;7.006;2024-01-11T23:57:34;1.50;99.90
